sensor_id;sensor_type;location;lat;lon;timestamp;temperature;humidity
9219;DHT22;4644;48.858;9.184;2022-12-18T00:00:00;-7.90;99.90
9219;DHT22;4644;48.858;9.184;2022-12-18T00:02:27;-7.90;99.90
9219;DHT22;4644;48.858;9.184;2022-12-18T00:04:57;-7.90;99.90
9219;DHT22;4644;48.858;9.184;2022-12-18T00:07:25;-8.00;99.90
9219;DHT22;4644;48.858;9.184;2022-12-18T00:09:52;-8.00;99.90
9219;DHT22;4644;48.858;9.184;2022-12-18T00:12:19;-8.00;99.90
9219;DHT22;4644;48.858;9.184;2022-12-18T00:14:48;-8.10;99.90
9219;DHT22;4644;48.858;9.184;2022-12-18T00:17:15;-8.10;99.90
9219;DHT22;4644;48.858;9.184;2022-12-18T00:19:43;-8.10;99.90
9219;DHT22;4644;48.858;9.184;2022-12-18T00:22:09;-8.10;99.90
9219;DHT22;4644;48.858;9.184;2022-12-18T00:24:38;-8.20;99.90
9219;DHT22;4644;48.858;9.184;2022-12-18T00:27:05;-8.20;99.90
9219;DHT22;4644;48.858;9.184;2022-12-18T00:29:32;-8.20;99.90
9219;DHT22;4644;48.858;9.184;2022-12-18T00:31:59;-8.20;99.90
9219;DHT22;4644;48.858;9.184;2022-12-18T00:34:26;-8.20;99.90
9219;DHT22;4644;48.858;9.184;2022-12-18T00:36:54;-8.10;99.90
9219;DHT22;4644;48.858;9.184;2022-12-18T00:39:21;-8.10;99.90
9219;DHT22;4644;48.858;9.184;2022-12-18T00:41:49;-8.20;99.90
9219;DHT22;4644;48.858;9.184;2022-12-18T00:44:33;-8.20;99.90
9219;DHT22;4644;48.858;9.184;2022-12-18T00:47:00;-8.20;99.90
9219;DHT22;4644;48.858;9.184;2022-12-18T00:49:27;-8.30;99.90
9219;DHT22;4644;48.858;9.184;2022-12-18T00:51:54;-8.30;99.90
9219;DHT22;4644;48.858;9.184;2022-12-18T00:54:22;-8.30;99.90
9219;DHT22;4644;48.858;9.184;2022-12-18T00:56:50;-8.30;99.90
9219;DHT22;4644;48.858;9.184;2022-12-18T00:59:18;-8.30;99.90
9219;DHT22;4644;48.858;9.184;2022-12-18T01:01:45;-8.30;99.90
9219;DHT22;4644;48.858;9.184;2022-12-18T01:04:13;-8.40;99.90
9219;DHT22;4644;48.858;9.184;2022-12-18T01:06:40;-8.40;99.90
9219;DHT22;4644;48.858;9.184;2022-12-18T01:09:07;-8.40;99.90
9219;DHT22;4644;48.858;9.184;2022-12-18T01:11:34;-8.40;99.90
9219;DHT22;4644;48.858;9.184;2022-12-18T01:14:03;-8.40;99.90
9219;DHT22;4644;48.858;9.184;2022-12-18T01:16:30;-8.40;99.90
9219;DHT22;4644;48.858;9.184;2022-12-18T01:18:56;-8.40;99.90
9219;DHT22;4644;48.858;9.184;2022-12-18T01:21:24;-8.40;99.90
9219;DHT22;4644;48.858;9.184;2022-12-18T01:23:52;-8.40;99.90
9219;DHT22;4644;48.858;9.184;2022-12-18T01:26:20;-8.40;99.90
9219;DHT22;4644;48.858;9.184;2022-12-18T01:28:47;-8.40;99.90
9219;DHT22;4644;48.858;9.184;2022-12-18T01:31:20;-8.40;99.90
9219;DHT22;4644;48.858;9.184;2022-12-18T01:33:48;-8.50;99.90
9219;DHT22;4644;48.858;9.184;2022-12-18T01:36:17;-8.40;99.90
9219;DHT22;4644;48.858;9.184;2022-12-18T01:38:45;-8.50;99.90
9219;DHT22;4644;48.858;9.184;2022-12-18T01:41:13;-8.40;99.90
9219;DHT22;4644;48.858;9.184;2022-12-18T01:43:45;-8.40;99.90
9219;DHT22;4644;48.858;9.184;2022-12-18T01:46:13;-8.40;99.90
9219;DHT22;4644;48.858;9.184;2022-12-18T01:48:42;-8.40;99.90
9219;DHT22;4644;48.858;9.184;2022-12-18T01:51:10;-8.40;99.90
9219;DHT22;4644;48.858;9.184;2022-12-18T01:53:40;-8.40;99.90
9219;DHT22;4644;48.858;9.184;2022-12-18T01:56:08;-8.40;99.90
9219;DHT22;4644;48.858;9.184;2022-12-18T01:58:43;-8.50;99.90
9219;DHT22;4644;48.858;9.184;2022-12-18T02:01:13;-8.40;99.90
9219;DHT22;4644;48.858;9.184;2022-12-18T02:03:43;-8.40;99.90
9219;DHT22;4644;48.858;9.184;2022-12-18T02:06:15;-8.50;99.90
9219;DHT22;4644;48.858;9.184;2022-12-18T02:08:53;-8.50;99.90
9219;DHT22;4644;48.858;9.184;2022-12-18T02:11:32;-8.40;99.90
9219;DHT22;4644;48.858;9.184;2022-12-18T02:14:11;-8.40;99.90
9219;DHT22;4644;48.858;9.184;2022-12-18T02:16:45;-8.40;99.90
9219;DHT22;4644;48.858;9.184;2022-12-18T02:19:27;-8.40;99.90
9219;DHT22;4644;48.858;9.184;2022-12-18T02:22:10;-8.40;99.90
9219;DHT22;4644;48.858;9.184;2022-12-18T02:24:49;-8.40;99.90
9219;DHT22;4644;48.858;9.184;2022-12-18T02:27:22;-8.30;99.90
9219;DHT22;4644;48.858;9.184;2022-12-18T02:29:51;-8.30;99.90
9219;DHT22;4644;48.858;9.184;2022-12-18T02:32:27;-8.30;99.90
9219;DHT22;4644;48.858;9.184;2022-12-18T02:34:56;-8.30;99.90
9219;DHT22;4644;48.858;9.184;2022-12-18T02:37:25;-8.30;99.90
9219;DHT22;4644;48.858;9.184;2022-12-18T02:39:55;-8.30;99.90
9219;DHT22;4644;48.858;9.184;2022-12-18T02:42:24;-8.20;99.90
9219;DHT22;4644;48.858;9.184;2022-12-18T02:44:52;-8.20;99.90
9219;DHT22;4644;48.858;9.184;2022-12-18T02:47:21;-8.20;99.90
9219;DHT22;4644;48.858;9.184;2022-12-18T02:49:55;-8.20;99.90
9219;DHT22;4644;48.858;9.184;2022-12-18T02:52:31;-8.20;99.90
9219;DHT22;4644;48.858;9.184;2022-12-18T02:55:09;-8.10;99.90
9219;DHT22;4644;48.858;9.184;2022-12-18T02:57:45;-8.10;99.90
9219;DHT22;4644;48.858;9.184;2022-12-18T03:00:16;-8.10;99.90
9219;DHT22;4644;48.858;9.184;2022-12-18T03:02:48;-8.10;99.90
9219;DHT22;4644;48.858;9.184;2022-12-18T03:05:21;-8.10;99.90
9219;DHT22;4644;48.858;9.184;2022-12-18T03:07:53;-8.00;99.90
9219;DHT22;4644;48.858;9.184;2022-12-18T03:10:26;-8.00;99.90
9219;DHT22;4644;48.858;9.184;2022-12-18T03:13:02;-8.00;99.90
9219;DHT22;4644;48.858;9.184;2022-12-18T03:15:31;-8.00;99.90
9219;DHT22;4644;48.858;9.184;2022-12-18T03:18:04;-7.90;99.90
9219;DHT22;4644;48.858;9.184;2022-12-18T03:20:34;-8.00;99.90
9219;DHT22;4644;48.858;9.184;2022-12-18T03:23:06;-8.00;99.90
9219;DHT22;4644;48.858;9.184;2022-12-18T03:25:35;-8.00;99.90
9219;DHT22;4644;48.858;9.184;2022-12-18T03:28:08;-8.00;99.90
9219;DHT22;4644;48.858;9.184;2022-12-18T03:30:38;-8.00;99.90
9219;DHT22;4644;48.858;9.184;2022-12-18T03:33:10;-8.00;99.90
9219;DHT22;4644;48.858;9.184;2022-12-18T03:35:42;-7.90;99.90
9219;DHT22;4644;48.858;9.184;2022-12-18T03:38:09;-7.90;99.90
9219;DHT22;4644;48.858;9.184;2022-12-18T03:40:43;-7.90;99.90
9219;DHT22;4644;48.858;9.184;2022-12-18T03:43:20;-7.90;99.90
9219;DHT22;4644;48.858;9.184;2022-12-18T03:45:54;-8.00;99.90
9219;DHT22;4644;48.858;9.184;2022-12-18T03:48:29;-8.00;99.90
9219;DHT22;4644;48.858;9.184;2022-12-18T03:51:01;-7.90;99.90
9219;DHT22;4644;48.858;9.184;2022-12-18T03:53:34;-8.00;99.90
9219;DHT22;4644;48.858;9.184;2022-12-18T03:56:04;-7.90;99.90
9219;DHT22;4644;48.858;9.184;2022-12-18T03:58:36;-8.00;99.90
9219;DHT22;4644;48.858;9.184;2022-12-18T04:01:07;-7.90;99.90
9219;DHT22;4644;48.858;9.184;2022-12-18T04:03:35;-8.00;99.90
9219;DHT22;4644;48.858;9.184;2022-12-18T04:06:03;-8.00;99.90
9219;DHT22;4644;48.858;9.184;2022-12-18T04:08:32;-8.00;99.90
9219;DHT22;4644;48.858;9.184;2022-12-18T04:11:00;-8.10;99.90
9219;DHT22;4644;48.858;9.184;2022-12-18T04:13:29;-8.10;99.90
9219;DHT22;4644;48.858;9.184;2022-12-18T04:15:58;-8.10;99.90
9219;DHT22;4644;48.858;9.184;2022-12-18T04:18:25;-8.20;99.90
9219;DHT22;4644;48.858;9.184;2022-12-18T04:20:52;-8.20;99.90
9219;DHT22;4644;48.858;9.184;2022-12-18T04:23:19;-8.20;99.90
9219;DHT22;4644;48.858;9.184;2022-12-18T04:25:47;-8.20;99.90
9219;DHT22;4644;48.858;9.184;2022-12-18T04:28:14;-8.20;99.90
9219;DHT22;4644;48.858;9.184;2022-12-18T04:30:41;-8.20;99.90
9219;DHT22;4644;48.858;9.184;2022-12-18T04:33:10;-8.20;99.90
9219;DHT22;4644;48.858;9.184;2022-12-18T04:35:38;-8.20;99.90
9219;DHT22;4644;48.858;9.184;2022-12-18T04:38:06;-8.20;99.90
9219;DHT22;4644;48.858;9.184;2022-12-18T04:40:33;-8.20;99.90
9219;DHT22;4644;48.858;9.184;2022-12-18T04:43:00;-8.30;99.90
9219;DHT22;4644;48.858;9.184;2022-12-18T04:45:27;-8.30;99.90
9219;DHT22;4644;48.858;9.184;2022-12-18T04:47:57;-8.40;99.90
9219;DHT22;4644;48.858;9.184;2022-12-18T04:50:26;-8.40;99.90
9219;DHT22;4644;48.858;9.184;2022-12-18T04:52:53;-8.50;99.90
9219;DHT22;4644;48.858;9.184;2022-12-18T04:55:20;-8.50;99.90
9219;DHT22;4644;48.858;9.184;2022-12-18T04:57:47;-8.50;99.90
9219;DHT22;4644;48.858;9.184;2022-12-18T05:00:14;-8.60;99.90
9219;DHT22;4644;48.858;9.184;2022-12-18T05:02:41;-8.60;99.90
9219;DHT22;4644;48.858;9.184;2022-12-18T05:05:08;-8.60;99.90
9219;DHT22;4644;48.858;9.184;2022-12-18T05:07:37;-8.70;99.90
9219;DHT22;4644;48.858;9.184;2022-12-18T05:10:05;-8.60;99.90
9219;DHT22;4644;48.858;9.184;2022-12-18T05:12:32;-8.60;99.90
9219;DHT22;4644;48.858;9.184;2022-12-18T05:14:59;-8.60;99.90
9219;DHT22;4644;48.858;9.184;2022-12-18T05:17:26;-8.60;99.90
9219;DHT22;4644;48.858;9.184;2022-12-18T05:19:53;-8.70;99.90
9219;DHT22;4644;48.858;9.184;2022-12-18T05:22:20;-8.60;99.90
9219;DHT22;4644;48.858;9.184;2022-12-18T05:24:48;-8.60;99.90
9219;DHT22;4644;48.858;9.184;2022-12-18T05:27:15;-8.60;99.90
9219;DHT22;4644;48.858;9.184;2022-12-18T05:29:43;-8.60;99.90
9219;DHT22;4644;48.858;9.184;2022-12-18T05:32:10;-8.60;99.90
9219;DHT22;4644;48.858;9.184;2022-12-18T05:34:37;-8.70;99.90
9219;DHT22;4644;48.858;9.184;2022-12-18T05:37:04;-8.80;99.90
9219;DHT22;4644;48.858;9.184;2022-12-18T05:39:31;-8.80;99.90
9219;DHT22;4644;48.858;9.184;2022-12-18T05:41:59;-8.80;99.90
9219;DHT22;4644;48.858;9.184;2022-12-18T05:44:26;-8.90;99.90
9219;DHT22;4644;48.858;9.184;2022-12-18T05:46:53;-8.90;99.90
9219;DHT22;4644;48.858;9.184;2022-12-18T05:49:20;-8.90;99.90
9219;DHT22;4644;48.858;9.184;2022-12-18T05:51:47;-9.00;99.90
9219;DHT22;4644;48.858;9.184;2022-12-18T05:54:14;-9.00;99.90
9219;DHT22;4644;48.858;9.184;2022-12-18T05:56:41;-9.00;99.90
9219;DHT22;4644;48.858;9.184;2022-12-18T05:59:10;-9.00;99.90
9219;DHT22;4644;48.858;9.184;2022-12-18T06:01:37;-9.00;99.90
9219;DHT22;4644;48.858;9.184;2022-12-18T06:04:04;-9.10;99.90
9219;DHT22;4644;48.858;9.184;2022-12-18T06:06:31;-9.10;99.90
9219;DHT22;4644;48.858;9.184;2022-12-18T06:08:58;-9.10;99.90
9219;DHT22;4644;48.858;9.184;2022-12-18T06:11:27;-9.10;99.90
9219;DHT22;4644;48.858;9.184;2022-12-18T06:13:55;-9.20;99.90
9219;DHT22;4644;48.858;9.184;2022-12-18T06:16:24;-9.20;99.90
9219;DHT22;4644;48.858;9.184;2022-12-18T06:18:51;-9.20;99.90
9219;DHT22;4644;48.858;9.184;2022-12-18T06:21:18;-9.20;99.90
9219;DHT22;4644;48.858;9.184;2022-12-18T06:23:45;-9.30;99.90
9219;DHT22;4644;48.858;9.184;2022-12-18T06:26:12;-9.30;99.90
9219;DHT22;4644;48.858;9.184;2022-12-18T06:28:41;-9.30;99.90
9219;DHT22;4644;48.858;9.184;2022-12-18T06:31:08;-9.30;99.90
9219;DHT22;4644;48.858;9.184;2022-12-18T06:33:37;-9.40;99.90
9219;DHT22;4644;48.858;9.184;2022-12-18T06:36:07;-9.30;99.90
9219;DHT22;4644;48.858;9.184;2022-12-18T06:38:36;-9.30;99.90
9219;DHT22;4644;48.858;9.184;2022-12-18T06:41:06;-9.40;99.90
9219;DHT22;4644;48.858;9.184;2022-12-18T06:43:43;-9.30;99.90
9219;DHT22;4644;48.858;9.184;2022-12-18T06:46:11;-9.40;99.90
9219;DHT22;4644;48.858;9.184;2022-12-18T06:48:48;-9.40;99.90
9219;DHT22;4644;48.858;9.184;2022-12-18T06:51:18;-9.40;99.90
9219;DHT22;4644;48.858;9.184;2022-12-18T06:53:45;-9.40;99.90
9219;DHT22;4644;48.858;9.184;2022-12-18T06:56:12;-9.50;99.90
9219;DHT22;4644;48.858;9.184;2022-12-18T06:58:39;-9.50;99.90
9219;DHT22;4644;48.858;9.184;2022-12-18T07:01:08;-9.50;99.90
9219;DHT22;4644;48.858;9.184;2022-12-18T07:03:35;-9.50;99.90
9219;DHT22;4644;48.858;9.184;2022-12-18T07:06:04;-9.50;99.90
9219;DHT22;4644;48.858;9.184;2022-12-18T07:08:32;-9.40;99.90
9219;DHT22;4644;48.858;9.184;2022-12-18T07:10:59;-9.40;99.90
9219;DHT22;4644;48.858;9.184;2022-12-18T07:13:26;-9.40;99.90
9219;DHT22;4644;48.858;9.184;2022-12-18T07:15:53;-9.40;99.90
9219;DHT22;4644;48.858;9.184;2022-12-18T07:18:19;-9.40;99.90
9219;DHT22;4644;48.858;9.184;2022-12-18T07:20:49;-9.40;99.90
9219;DHT22;4644;48.858;9.184;2022-12-18T07:23:17;-9.40;99.90
9219;DHT22;4644;48.858;9.184;2022-12-18T07:25:44;-9.40;99.90
9219;DHT22;4644;48.858;9.184;2022-12-18T07:28:11;-9.40;99.90
9219;DHT22;4644;48.858;9.184;2022-12-18T07:30:38;-9.40;99.90
9219;DHT22;4644;48.858;9.184;2022-12-18T07:33:05;-9.40;99.90
9219;DHT22;4644;48.858;9.184;2022-12-18T07:35:32;-9.30;99.90
9219;DHT22;4644;48.858;9.184;2022-12-18T07:38:01;-9.30;99.90
9219;DHT22;4644;48.858;9.184;2022-12-18T07:40:29;-9.30;99.90
9219;DHT22;4644;48.858;9.184;2022-12-18T07:42:56;-9.20;99.90
9219;DHT22;4644;48.858;9.184;2022-12-18T07:45:23;-9.20;99.90
9219;DHT22;4644;48.858;9.184;2022-12-18T07:47:50;-9.20;99.90
9219;DHT22;4644;48.858;9.184;2022-12-18T07:50:17;-9.10;99.90
9219;DHT22;4644;48.858;9.184;2022-12-18T07:52:44;-9.10;99.90
9219;DHT22;4644;48.858;9.184;2022-12-18T07:55:12;-9.10;99.90
9219;DHT22;4644;48.858;9.184;2022-12-18T07:57:40;-9.10;99.90
9219;DHT22;4644;48.858;9.184;2022-12-18T08:00:08;-9.10;99.90
9219;DHT22;4644;48.858;9.184;2022-12-18T08:02:35;-9.10;99.90
9219;DHT22;4644;48.858;9.184;2022-12-18T08:05:02;-9.00;99.90
9219;DHT22;4644;48.858;9.184;2022-12-18T08:07:30;-9.00;99.90
9219;DHT22;4644;48.858;9.184;2022-12-18T08:09:56;-8.90;99.90
9219;DHT22;4644;48.858;9.184;2022-12-18T08:12:23;-8.90;99.90
9219;DHT22;4644;48.858;9.184;2022-12-18T08:14:52;-8.90;99.90
9219;DHT22;4644;48.858;9.184;2022-12-18T08:17:19;-8.90;99.90
9219;DHT22;4644;48.858;9.184;2022-12-18T08:19:46;-8.80;99.90
9219;DHT22;4644;48.858;9.184;2022-12-18T08:22:13;-8.70;99.90
9219;DHT22;4644;48.858;9.184;2022-12-18T08:24:40;-8.70;99.90
9219;DHT22;4644;48.858;9.184;2022-12-18T08:27:07;-8.60;99.90
9219;DHT22;4644;48.858;9.184;2022-12-18T08:29:34;-8.60;99.90
9219;DHT22;4644;48.858;9.184;2022-12-18T08:32:03;-8.50;99.90
9219;DHT22;4644;48.858;9.184;2022-12-18T08:34:30;-8.40;99.90
9219;DHT22;4644;48.858;9.184;2022-12-18T08:36:57;-8.30;99.90
9219;DHT22;4644;48.858;9.184;2022-12-18T08:39:24;-8.20;99.90
9219;DHT22;4644;48.858;9.184;2022-12-18T08:41:51;-8.10;99.90
9219;DHT22;4644;48.858;9.184;2022-12-18T08:44:32;-8.00;99.90
9219;DHT22;4644;48.858;9.184;2022-12-18T08:47:08;-7.90;99.90
9219;DHT22;4644;48.858;9.184;2022-12-18T08:49:35;-7.80;99.90
9219;DHT22;4644;48.858;9.184;2022-12-18T08:52:04;-7.80;99.90
9219;DHT22;4644;48.858;9.184;2022-12-18T08:54:31;-7.60;99.90
9219;DHT22;4644;48.858;9.184;2022-12-18T08:56:58;-7.50;99.90
9219;DHT22;4644;48.858;9.184;2022-12-18T08:59:29;-7.50;99.90
9219;DHT22;4644;48.858;9.184;2022-12-18T09:01:56;-7.40;99.90
9219;DHT22;4644;48.858;9.184;2022-12-18T09:04:24;-7.30;99.90
9219;DHT22;4644;48.858;9.184;2022-12-18T09:06:51;-7.30;99.90
9219;DHT22;4644;48.858;9.184;2022-12-18T09:09:18;-7.30;99.90
9219;DHT22;4644;48.858;9.184;2022-12-18T09:11:45;-7.30;99.90
9219;DHT22;4644;48.858;9.184;2022-12-18T09:14:12;-7.20;99.90
9219;DHT22;4644;48.858;9.184;2022-12-18T09:16:39;-7.20;99.90
9219;DHT22;4644;48.858;9.184;2022-12-18T09:19:06;-7.10;99.90
9219;DHT22;4644;48.858;9.184;2022-12-18T09:21:36;-7.00;99.90
9219;DHT22;4644;48.858;9.184;2022-12-18T09:24:05;-6.80;99.90
9219;DHT22;4644;48.858;9.184;2022-12-18T09:26:32;-6.70;99.90
9219;DHT22;4644;48.858;9.184;2022-12-18T09:28:59;-6.50;99.90
9219;DHT22;4644;48.858;9.184;2022-12-18T09:31:28;-6.50;99.90
9219;DHT22;4644;48.858;9.184;2022-12-18T09:33:55;-6.50;99.90
9219;DHT22;4644;48.858;9.184;2022-12-18T09:36:22;-6.30;99.90
9219;DHT22;4644;48.858;9.184;2022-12-18T09:38:51;-6.10;99.90
9219;DHT22;4644;48.858;9.184;2022-12-18T09:41:32;-6.00;99.90
9219;DHT22;4644;48.858;9.184;2022-12-18T09:44:03;-5.80;99.90
9219;DHT22;4644;48.858;9.184;2022-12-18T09:46:34;-5.70;99.90
9219;DHT22;4644;48.858;9.184;2022-12-18T09:49:06;-5.30;99.90
9219;DHT22;4644;48.858;9.184;2022-12-18T09:51:39;-5.10;99.90
9219;DHT22;4644;48.858;9.184;2022-12-18T09:54:14;-5.00;99.90
9219;DHT22;4644;48.858;9.184;2022-12-18T09:56:43;-5.00;99.90
9219;DHT22;4644;48.858;9.184;2022-12-18T09:59:21;-4.80;99.90
9219;DHT22;4644;48.858;9.184;2022-12-18T10:01:49;-4.60;99.90
9219;DHT22;4644;48.858;9.184;2022-12-18T10:04:17;-4.60;99.90
9219;DHT22;4644;48.858;9.184;2022-12-18T10:06:54;-4.40;99.90
9219;DHT22;4644;48.858;9.184;2022-12-18T10:09:30;-4.30;99.90
9219;DHT22;4644;48.858;9.184;2022-12-18T10:12:07;-4.30;99.90
9219;DHT22;4644;48.858;9.184;2022-12-18T10:14:41;-4.30;99.90
9219;DHT22;4644;48.858;9.184;2022-12-18T10:17:17;-4.00;99.90
9219;DHT22;4644;48.858;9.184;2022-12-18T10:19:50;-3.90;99.90
9219;DHT22;4644;48.858;9.184;2022-12-18T10:22:40;-3.90;99.90
9219;DHT22;4644;48.858;9.184;2022-12-18T10:25:20;-3.80;99.90
9219;DHT22;4644;48.858;9.184;2022-12-18T10:27:52;-3.80;99.90
9219;DHT22;4644;48.858;9.184;2022-12-18T10:30:22;-3.70;99.90
9219;DHT22;4644;48.858;9.184;2022-12-18T10:32:50;-3.60;99.90
9219;DHT22;4644;48.858;9.184;2022-12-18T10:35:20;-3.40;99.90
9219;DHT22;4644;48.858;9.184;2022-12-18T10:38:05;-3.30;99.90
9219;DHT22;4644;48.858;9.184;2022-12-18T10:40:48;-3.00;99.90
9219;DHT22;4644;48.858;9.184;2022-12-18T10:43:20;-2.90;99.90
9219;DHT22;4644;48.858;9.184;2022-12-18T10:46:14;-2.60;99.90
9219;DHT22;4644;48.858;9.184;2022-12-18T10:48:53;-2.60;99.90
9219;DHT22;4644;48.858;9.184;2022-12-18T10:51:23;-2.50;99.90
9219;DHT22;4644;48.858;9.184;2022-12-18T10:53:59;-2.60;99.90
9219;DHT22;4644;48.858;9.184;2022-12-18T10:56:30;-2.60;99.90
9219;DHT22;4644;48.858;9.184;2022-12-18T10:59:00;-2.50;99.90
9219;DHT22;4644;48.858;9.184;2022-12-18T11:01:27;-2.40;99.90
9219;DHT22;4644;48.858;9.184;2022-12-18T11:04:07;-2.10;99.90
9219;DHT22;4644;48.858;9.184;2022-12-18T11:06:53;-1.90;99.90
9219;DHT22;4644;48.858;9.184;2022-12-18T11:09:25;-1.70;99.90
9219;DHT22;4644;48.858;9.184;2022-12-18T11:11:59;-1.60;99.90
9219;DHT22;4644;48.858;9.184;2022-12-18T11:14:29;-1.50;99.90
9219;DHT22;4644;48.858;9.184;2022-12-18T11:16:58;-1.60;99.90
9219;DHT22;4644;48.858;9.184;2022-12-18T11:19:32;-1.50;99.90
9219;DHT22;4644;48.858;9.184;2022-12-18T11:22:01;-1.40;99.90
9219;DHT22;4644;48.858;9.184;2022-12-18T11:24:31;-1.20;99.90
9219;DHT22;4644;48.858;9.184;2022-12-18T11:27:01;-1.00;99.90
9219;DHT22;4644;48.858;9.184;2022-12-18T11:29:33;-0.80;99.90
9219;DHT22;4644;48.858;9.184;2022-12-18T11:32:34;-0.60;99.90
9219;DHT22;4644;48.858;9.184;2022-12-18T11:35:11;-0.50;99.90
9219;DHT22;4644;48.858;9.184;2022-12-18T11:37:44;-0.30;99.90
9219;DHT22;4644;48.858;9.184;2022-12-18T11:40:16;-0.10;99.90
9219;DHT22;4644;48.858;9.184;2022-12-18T11:42:49;0.20;99.90
9219;DHT22;4644;48.858;9.184;2022-12-18T11:45:27;0.20;99.90
9219;DHT22;4644;48.858;9.184;2022-12-18T11:48:01;0.30;99.90
9219;DHT22;4644;48.858;9.184;2022-12-18T11:50:33;0.20;99.90
9219;DHT22;4644;48.858;9.184;2022-12-18T11:53:01;0.30;99.90
9219;DHT22;4644;48.858;9.184;2022-12-18T11:55:36;0.50;99.90
9219;DHT22;4644;48.858;9.184;2022-12-18T11:58:11;0.50;99.90
9219;DHT22;4644;48.858;9.184;2022-12-18T12:00:44;0.90;99.90
9219;DHT22;4644;48.858;9.184;2022-12-18T12:03:24;1.00;99.90
9219;DHT22;4644;48.858;9.184;2022-12-18T12:06:15;1.10;99.90
9219;DHT22;4644;48.858;9.184;2022-12-18T12:08:56;1.20;99.90
9219;DHT22;4644;48.858;9.184;2022-12-18T12:11:35;1.50;99.90
9219;DHT22;4644;48.858;9.184;2022-12-18T12:14:24;1.40;99.90
9219;DHT22;4644;48.858;9.184;2022-12-18T12:17:01;1.50;99.90
9219;DHT22;4644;48.858;9.184;2022-12-18T12:19:40;1.50;99.90
9219;DHT22;4644;48.858;9.184;2022-12-18T12:22:16;1.10;99.90
9219;DHT22;4644;48.858;9.184;2022-12-18T12:24:59;0.80;99.90
9219;DHT22;4644;48.858;9.184;2022-12-18T12:27:36;0.10;99.90
9219;DHT22;4644;48.858;9.184;2022-12-18T12:30:08;-0.40;99.90
9219;DHT22;4644;48.858;9.184;2022-12-18T12:32:50;-0.60;99.90
9219;DHT22;4644;48.858;9.184;2022-12-18T12:35:32;-0.80;99.90
9219;DHT22;4644;48.858;9.184;2022-12-18T12:38:08;-1.00;99.90
9219;DHT22;4644;48.858;9.184;2022-12-18T12:40:41;-1.10;99.90
9219;DHT22;4644;48.858;9.184;2022-12-18T12:43:21;-1.20;99.90
9219;DHT22;4644;48.858;9.184;2022-12-18T12:45:53;-1.30;99.90
9219;DHT22;4644;48.858;9.184;2022-12-18T12:48:32;-1.20;99.90
9219;DHT22;4644;48.858;9.184;2022-12-18T12:51:04;-1.10;99.90
9219;DHT22;4644;48.858;9.184;2022-12-18T12:53:37;-1.10;99.90
9219;DHT22;4644;48.858;9.184;2022-12-18T12:56:04;-1.20;99.90
9219;DHT22;4644;48.858;9.184;2022-12-18T12:58:38;-1.20;99.90
9219;DHT22;4644;48.858;9.184;2022-12-18T13:01:20;-1.10;99.90
9219;DHT22;4644;48.858;9.184;2022-12-18T13:03:56;-1.00;99.90
9219;DHT22;4644;48.858;9.184;2022-12-18T13:06:34;-0.90;99.90
9219;DHT22;4644;48.858;9.184;2022-12-18T13:09:04;-0.90;99.90
9219;DHT22;4644;48.858;9.184;2022-12-18T13:11:35;-1.00;99.90
9219;DHT22;4644;48.858;9.184;2022-12-18T13:14:23;-0.90;99.90
9219;DHT22;4644;48.858;9.184;2022-12-18T13:16:52;-1.00;99.90
9219;DHT22;4644;48.858;9.184;2022-12-18T13:19:42;-1.10;99.90
9219;DHT22;4644;48.858;9.184;2022-12-18T13:22:22;-1.20;99.90
9219;DHT22;4644;48.858;9.184;2022-12-18T13:24:50;-1.30;99.90
9219;DHT22;4644;48.858;9.184;2022-12-18T13:27:52;-1.30;99.90
9219;DHT22;4644;48.858;9.184;2022-12-18T13:30:44;-1.40;99.90
9219;DHT22;4644;48.858;9.184;2022-12-18T13:33:38;-1.40;99.90
9219;DHT22;4644;48.858;9.184;2022-12-18T13:36:13;-1.40;99.90
9219;DHT22;4644;48.858;9.184;2022-12-18T13:38:41;-1.40;99.90
9219;DHT22;4644;48.858;9.184;2022-12-18T13:41:25;-1.30;99.90
9219;DHT22;4644;48.858;9.184;2022-12-18T13:43:54;-1.30;99.90
9219;DHT22;4644;48.858;9.184;2022-12-18T13:46:26;-1.30;99.90
9219;DHT22;4644;48.858;9.184;2022-12-18T13:49:05;-1.20;99.90
9219;DHT22;4644;48.858;9.184;2022-12-18T13:51:33;-1.30;99.90
9219;DHT22;4644;48.858;9.184;2022-12-18T13:54:02;-1.30;99.90
9219;DHT22;4644;48.858;9.184;2022-12-18T13:56:33;-1.40;99.90
9219;DHT22;4644;48.858;9.184;2022-12-18T13:59:11;-1.50;99.90
9219;DHT22;4644;48.858;9.184;2022-12-18T14:01:43;-1.50;99.90
9219;DHT22;4644;48.858;9.184;2022-12-18T14:04:20;-1.50;99.90
9219;DHT22;4644;48.858;9.184;2022-12-18T14:06:48;-1.50;99.90
9219;DHT22;4644;48.858;9.184;2022-12-18T14:09:18;-1.50;99.90
9219;DHT22;4644;48.858;9.184;2022-12-18T14:11:47;-1.50;99.90
9219;DHT22;4644;48.858;9.184;2022-12-18T14:14:16;-1.60;99.90
9219;DHT22;4644;48.858;9.184;2022-12-18T14:16:44;-1.60;99.90
9219;DHT22;4644;48.858;9.184;2022-12-18T14:19:15;-1.60;99.90
9219;DHT22;4644;48.858;9.184;2022-12-18T14:21:46;-1.60;99.90
9219;DHT22;4644;48.858;9.184;2022-12-18T14:24:16;-1.70;99.90
9219;DHT22;4644;48.858;9.184;2022-12-18T14:26:44;-1.80;99.90
9219;DHT22;4644;48.858;9.184;2022-12-18T14:29:26;-1.80;99.90
9219;DHT22;4644;48.858;9.184;2022-12-18T14:32:08;-1.80;99.90
9219;DHT22;4644;48.858;9.184;2022-12-18T14:34:37;-1.80;99.90
9219;DHT22;4644;48.858;9.184;2022-12-18T14:37:05;-1.80;99.90
9219;DHT22;4644;48.858;9.184;2022-12-18T14:39:32;-1.90;99.90
9219;DHT22;4644;48.858;9.184;2022-12-18T14:41:59;-1.90;99.90
9219;DHT22;4644;48.858;9.184;2022-12-18T14:44:26;-1.90;99.90
9219;DHT22;4644;48.858;9.184;2022-12-18T14:46:55;-1.90;99.90
9219;DHT22;4644;48.858;9.184;2022-12-18T14:49:26;-2.00;99.90
9219;DHT22;4644;48.858;9.184;2022-12-18T14:51:56;-2.10;99.90
9219;DHT22;4644;48.858;9.184;2022-12-18T14:54:25;-2.20;99.90
9219;DHT22;4644;48.858;9.184;2022-12-18T14:57:00;-2.20;99.90
9219;DHT22;4644;48.858;9.184;2022-12-18T14:59:29;-2.20;99.90
9219;DHT22;4644;48.858;9.184;2022-12-18T15:02:00;-2.20;99.90
9219;DHT22;4644;48.858;9.184;2022-12-18T15:04:31;-2.30;99.90
9219;DHT22;4644;48.858;9.184;2022-12-18T15:07:09;-2.40;99.90
9219;DHT22;4644;48.858;9.184;2022-12-18T15:09:43;-2.40;99.90
9219;DHT22;4644;48.858;9.184;2022-12-18T15:12:26;-2.50;99.90
9219;DHT22;4644;48.858;9.184;2022-12-18T15:14:55;-2.50;99.90
9219;DHT22;4644;48.858;9.184;2022-12-18T15:17:24;-2.70;99.90
9219;DHT22;4644;48.858;9.184;2022-12-18T15:19:53;-2.70;99.90
9219;DHT22;4644;48.858;9.184;2022-12-18T15:22:29;-2.80;99.90
9219;DHT22;4644;48.858;9.184;2022-12-18T15:24:58;-2.80;99.90
9219;DHT22;4644;48.858;9.184;2022-12-18T15:27:30;-2.80;99.90
9219;DHT22;4644;48.858;9.184;2022-12-18T15:30:30;-2.90;99.90
9219;DHT22;4644;48.858;9.184;2022-12-18T15:33:23;-2.90;99.90
9219;DHT22;4644;48.858;9.184;2022-12-18T15:35:59;-2.90;99.90
9219;DHT22;4644;48.858;9.184;2022-12-18T15:38:29;-3.00;99.90
9219;DHT22;4644;48.858;9.184;2022-12-18T15:40:57;-3.10;99.90
9219;DHT22;4644;48.858;9.184;2022-12-18T15:43:26;-3.10;99.90
9219;DHT22;4644;48.858;9.184;2022-12-18T15:46:03;-3.10;99.90
9219;DHT22;4644;48.858;9.184;2022-12-18T15:48:33;-3.10;99.90
9219;DHT22;4644;48.858;9.184;2022-12-18T15:51:01;-3.10;99.90
9219;DHT22;4644;48.858;9.184;2022-12-18T15:53:33;-3.20;99.90
9219;DHT22;4644;48.858;9.184;2022-12-18T15:56:00;-3.20;99.90
9219;DHT22;4644;48.858;9.184;2022-12-18T15:58:45;-3.20;99.90
9219;DHT22;4644;48.858;9.184;2022-12-18T16:01:13;-3.20;99.90
9219;DHT22;4644;48.858;9.184;2022-12-18T16:03:41;-3.30;99.90
9219;DHT22;4644;48.858;9.184;2022-12-18T16:06:21;-3.30;99.90
9219;DHT22;4644;48.858;9.184;2022-12-18T16:08:51;-3.30;99.90
9219;DHT22;4644;48.858;9.184;2022-12-18T16:11:22;-3.30;99.90
9219;DHT22;4644;48.858;9.184;2022-12-18T16:14:05;-3.30;99.90
9219;DHT22;4644;48.858;9.184;2022-12-18T16:16:33;-3.40;99.90
9219;DHT22;4644;48.858;9.184;2022-12-18T16:19:00;-3.40;99.90
9219;DHT22;4644;48.858;9.184;2022-12-18T16:21:29;-3.50;99.90
9219;DHT22;4644;48.858;9.184;2022-12-18T16:23:58;-3.40;99.90
9219;DHT22;4644;48.858;9.184;2022-12-18T16:26:26;-3.40;99.90